Time;durP1;ratioP1;P1;durP2;ratioP2;P2;SDS_P1;SDS_P2;PMS_P1;PMS_P2;Temp;Humidity;BMP_temperature;BMP_pressure;BME280_temperature;BME280_humidity;BME280_pressure;Samples;Min_cycle;Max_cycle;Signal;HPM_P1;HPM_P2
2022/10/24 00:00:41;;;;;;;8.57;2.60;;;;;;;;;;5074631;28;20088;-82
2022/10/24 00:03:07;;;;;;;5.72;2.30;;;;;;;;;;5095376;28;20443;-82
2022/10/24 00:05:33;;;;;;;7.30;2.50;;;;;;;;;;5093772;28;20457;-82
2022/10/24 00:07:59;;;;;;;6.13;2.30;;;;;;;;;;5075978;28;20076;-81
2022/10/24 00:10:25;;;;;;;5.05;2.00;;;;;;;;;;5080850;28;20078;-81
2022/10/24 00:12:53;;;;;;;5.82;2.30;;;;;;;;;;5105358;28;20511;-81
2022/10/24 00:15:19;;;;;;;8.30;2.22;;;;;;;;;;5076283;28;20051;-82
2022/10/24 00:17:45;;;;;;;7.07;2.20;;;;;;;;;;5104700;28;20043;-82
2022/10/24 00:20:11;;;;;;;9.32;2.53;;;;;;;;;;5095247;28;20059;-82
2022/10/24 00:22:37;;;;;;;7.00;2.25;;;;;;;;;;5113412;28;20050;-81
2022/10/24 00:25:04;;;;;;;8.90;2.35;;;;;;;;;;5095290;28;20043;-81
2022/10/24 00:27:30;;;;;;;6.15;2.20;;;;;;;;;;5096001;28;20055;-81
2022/10/24 00:29:56;;;;;;;5.82;2.15;;;;;;;;;;5113453;28;20126;-81
2022/10/24 00:32:22;;;;;;;7.50;2.15;;;;;;;;;;5095031;28;20093;-81
2022/10/24 00:34:48;;;;;;;9.35;2.30;;;;;;;;;;5094697;28;20047;-81
2022/10/24 00:37:14;;;;;;;5.13;1.90;;;;;;;;;;5094800;28;20038;-81
2022/10/24 00:39:40;;;;;;;7.72;2.40;;;;;;;;;;5113076;28;20040;-81
2022/10/24 00:42:06;;;;;;;9.93;2.72;;;;;;;;;;5095220;28;20055;-81
2022/10/24 00:44:33;;;;;;;9.57;2.30;;;;;;;;;;5113974;28;20040;-81
2022/10/24 00:47:02;;;;;;;6.90;2.20;;;;;;;;;;5113938;28;20494;-81
2022/10/24 00:49:30;;;;;;;8.75;2.53;;;;;;;;;;5105126;28;20035;-81
2022/10/24 00:51:59;;;;;;;6.97;2.47;;;;;;;;;;5097684;28;20131;-81
2022/10/24 00:54:25;;;;;;;6.95;1.80;;;;;;;;;;5078539;28;20040;-81
2022/10/24 00:57:07;;;;;;;4.90;2.00;;;;;;;;;;5114521;28;20032;-81
2022/10/24 00:59:34;;;;;;;4.72;1.85;;;;;;;;;;5095495;28;20124;-82
2022/10/24 01:02:00;;;;;;;10.88;2.20;;;;;;;;;;5096484;28;20050;-82
2022/10/24 01:04:26;;;;;;;4.97;1.90;;;;;;;;;;5079836;28;20489;-81
2022/10/24 01:06:52;;;;;;;5.75;2.00;;;;;;;;;;5079535;28;20137;-81
2022/10/24 01:09:36;;;;;;;5.30;1.92;;;;;;;;;;5095027;28;20090;-81
2022/10/24 01:12:18;;;;;;;9.48;2.05;;;;;;;;;;5085052;28;20529;-81
2022/10/24 01:14:55;;;;;;;5.65;1.92;;;;;;;;;;5117043;28;20119;-81
2022/10/24 01:17:24;;;;;;;6.88;2.13;;;;;;;;;;5098039;28;20086;-82
2022/10/24 01:20:09;;;;;;;5.82;2.00;;;;;;;;;;5116859;28;20040;-81
2022/10/24 01:22:37;;;;;;;6.45;1.95;;;;;;;;;;5101450;28;20156;-81
2022/10/24 01:25:30;;;;;;;7.05;2.05;;;;;;;;;;5100133;28;20111;-81
2022/10/24 01:28:00;;;;;;;4.70;2.05;;;;;;;;;;5098698;28;20411;-81
2022/10/24 01:30:29;;;;;;;4.80;1.83;;;;;;;;;;5098201;28;20046;-82
2022/10/24 01:33:00;;;;;;;6.00;1.77;;;;;;;;;;5080299;28;20048;-81
2022/10/24 01:35:39;;;;;;;5.65;1.90;;;;;;;;;;5097748;28;20044;-81
2022/10/24 01:38:05;;;;;;;7.00;2.42;;;;;;;;;;5082424;28;20110;-81
2022/10/24 01:40:33;;;;;;;6.72;2.00;;;;;;;;;;5099623;28;20445;-81
2022/10/24 01:43:02;;;;;;;5.00;1.90;;;;;;;;;;5097456;28;20044;-81
2022/10/24 01:45:32;;;;;;;5.75;2.15;;;;;;;;;;5105801;28;20272;-81
2022/10/24 01:47:59;;;;;;;8.10;2.40;;;;;;;;;;5079690;28;20407;-81
2022/10/24 01:50:26;;;;;;;8.80;2.17;;;;;;;;;;5097093;28;20043;-82
2022/10/24 01:52:53;;;;;;;7.85;2.75;;;;;;;;;;5095850;28;20079;-82
2022/10/24 01:55:19;;;;;;;6.32;2.20;;;;;;;;;;5094106;28;20044;-81
2022/10/24 01:57:45;;;;;;;5.82;2.00;;;;;;;;;;5095503;28;20122;-81
2022/10/24 02:00:16;;;;;;;8.30;2.80;;;;;;;;;;5094921;28;20457;-81
2022/10/24 02:02:44;;;;;;;6.72;2.20;;;;;;;;;;5081927;28;20127;-83
2022/10/24 02:05:17;;;;;;;6.47;2.20;;;;;;;;;;5076444;28;20047;-82
2022/10/24 02:07:44;;;;;;;9.20;2.42;;;;;;;;;;5097490;28;20043;-82
2022/10/24 02:10:13;;;;;;;8.95;2.45;;;;;;;;;;5098299;28;20041;-81
2022/10/24 02:12:42;;;;;;;6.30;2.17;;;;;;;;;;5114189;28;20062;-81
2022/10/24 02:15:13;;;;;;;7.28;2.30;;;;;;;;;;5113964;28;20434;-82
2022/10/24 02:17:39;;;;;;;6.97;2.45;;;;;;;;;;5104662;28;20416;-81
2022/10/24 02:20:06;;;;;;;6.50;2.50;;;;;;;;;;5114021;28;20500;-81
2022/10/24 02:22:41;;;;;;;6.68;2.50;;;;;;;;;;5097373;28;20392;-82
2022/10/24 02:25:10;;;;;;;5.85;2.45;;;;;;;;;;5115881;28;20039;-81
2022/10/24 02:27:39;;;;;;;8.68;2.42;;;;;;;;;;5116381;28;20115;-82
2022/10/24 02:30:05;;;;;;;7.47;2.45;;;;;;;;;;5097886;28;20173;-82
2022/10/24 02:32:38;;;;;;;6.97;2.13;;;;;;;;;;5108380;28;20050;-82
2022/10/24 02:35:06;;;;;;;8.35;2.45;;;;;;;;;;5104467;28;20050;-81
2022/10/24 02:37:33;;;;;;;7.88;2.53;;;;;;;;;;5116280;28;20495;-81
2022/10/24 02:40:01;;;;;;;7.63;2.53;;;;;;;;;;5098090;28;20050;-82
2022/10/24 02:42:27;;;;;;;10.63;2.42;;;;;;;;;;5115701;28;20445;-82
2022/10/24 02:44:54;;;;;;;8.23;2.53;;;;;;;;;;5115376;28;20044;-82
2022/10/24 02:47:22;;;;;;;6.15;2.30;;;;;;;;;;5095287;28;20050;-82
2022/10/24 02:49:48;;;;;;;6.82;2.38;;;;;;;;;;5082432;28;20558;-82
2022/10/24 02:52:14;;;;;;;7.85;2.80;;;;;;;;;;5077657;28;20071;-81
2022/10/24 02:54:40;;;;;;;7.82;2.53;;;;;;;;;;5095874;28;20035;-81
2022/10/24 02:57:06;;;;;;;8.63;2.42;;;;;;;;;;5105182;28;20073;-82
2022/10/24 02:59:32;;;;;;;8.13;2.60;;;;;;;;;;5096940;28;20040;-82
2022/10/24 03:01:59;;;;;;;7.78;2.72;;;;;;;;;;5089470;28;20047;-82
2022/10/24 03:04:25;;;;;;;10.07;2.63;;;;;;;;;;5060444;28;20503;-82
2022/10/24 03:06:52;;;;;;;8.63;2.58;;;;;;;;;;5061614;28;20047;-81
2022/10/24 03:09:18;;;;;;;9.25;2.33;;;;;;;;;;5062447;28;20435;-82
2022/10/24 03:11:44;;;;;;;8.13;2.55;;;;;;;;;;5106924;28;20399;-82
2022/10/24 03:14:10;;;;;;;9.63;2.50;;;;;;;;;;5102622;28;20126;-81
2022/10/24 03:16:36;;;;;;;8.88;2.20;;;;;;;;;;5097206;28;20143;-82
2022/10/24 03:19:02;;;;;;;11.15;2.50;;;;;;;;;;5096682;28;20035;-82
2022/10/24 03:21:28;;;;;;;5.70;2.20;;;;;;;;;;5092597;28;20043;-82
2022/10/24 03:23:54;;;;;;;4.70;2.05;;;;;;;;;;5096238;28;20123;-82
2022/10/24 03:26:20;;;;;;;8.88;2.22;;;;;;;;;;5094055;28;20032;-82
2022/10/24 03:28:46;;;;;;;6.45;2.40;;;;;;;;;;5077032;28;20044;-82
2022/10/24 03:31:12;;;;;;;11.98;2.58;;;;;;;;;;5095059;28;20092;-82
2022/10/24 03:33:38;;;;;;;13.70;2.70;;;;;;;;;;5096050;28;20485;-82
2022/10/24 03:36:05;;;;;;;6.68;2.53;;;;;;;;;;5110703;28;20043;-81
2022/10/24 03:38:31;;;;;;;9.00;2.67;;;;;;;;;;5112141;28;20157;-82
2022/10/24 03:40:57;;;;;;;9.05;2.20;;;;;;;;;;5060622;28;20048;-81
2022/10/24 03:43:23;;;;;;;10.93;2.70;;;;;;;;;;5077619;28;20043;-81
2022/10/24 03:45:49;;;;;;;10.55;2.42;;;;;;;;;;5077298;28;20036;-82
2022/10/24 03:48:15;;;;;;;7.38;2.47;;;;;;;;;;5073404;28;20042;-82
2022/10/24 03:50:41;;;;;;;7.03;2.40;;;;;;;;;;5114349;28;20059;-82
2022/10/24 03:53:07;;;;;;;5.90;2.38;;;;;;;;;;5093814;28;20092;-81
2022/10/24 03:55:33;;;;;;;8.57;2.47;;;;;;;;;;5095485;28;20044;-81
2022/10/24 03:57:59;;;;;;;10.73;2.35;;;;;;;;;;5094453;28;20085;-82
2022/10/24 04:00:27;;;;;;;6.85;2.70;;;;;;;;;;5093859;28;20036;-81
2022/10/24 04:02:54;;;;;;;8.90;2.63;;;;;;;;;;5063610;28;20044;-81
2022/10/24 04:05:20;;;;;;;4.93;2.20;;;;;;;;;;5095521;28;20044;-81
2022/10/24 04:07:46;;;;;;;9.52;2.55;;;;;;;;;;5068928;28;20124;-81
2022/10/24 04:10:12;;;;;;;9.07;3.17;;;;;;;;;;5093798;28;20043;-82
2022/10/24 04:12:38;;;;;;;9.02;2.50;;;;;;;;;;5093389;28;20443;-81
2022/10/24 04:15:04;;;;;;;9.30;2.90;;;;;;;;;;5105099;28;20036;-82
2022/10/24 04:17:30;;;;;;;11.70;2.72;;;;;;;;;;5100495;28;20054;-81
2022/10/24 04:19:56;;;;;;;12.23;2.60;;;;;;;;;;5114215;28;20039;-82
2022/10/24 04:22:22;;;;;;;8.38;2.60;;;;;;;;;;5107631;28;20093;-82
2022/10/24 04:24:48;;;;;;;13.38;2.60;;;;;;;;;;5095222;28;20054;-82
2022/10/24 04:27:14;;;;;;;7.57;2.30;;;;;;;;;;5099939;28;20426;-82
2022/10/24 04:29:40;;;;;;;11.48;2.70;;;;;;;;;;5076177;28;20040;-81
2022/10/24 04:32:06;;;;;;;8.82;2.50;;;;;;;;;;5083032;28;20044;-82
2022/10/24 04:34:35;;;;;;;8.13;2.47;;;;;;;;;;5110683;28;20039;-81
2022/10/24 04:37:01;;;;;;;5.85;2.30;;;;;;;;;;5110786;28;20381;-81
2022/10/24 04:39:27;;;;;;;10.15;2.63;;;;;;;;;;5102085;28;20059;-81
2022/10/24 04:41:54;;;;;;;9.43;2.60;;;;;;;;;;5086515;28;20123;-81
2022/10/24 04:44:20;;;;;;;9.27;2.67;;;;;;;;;;5092332;28;20553;-81
2022/10/24 04:46:45;;;;;;;8.30;2.30;;;;;;;;;;5075830;28;20036;-81
2022/10/24 04:49:11;;;;;;;6.80;2.35;;;;;;;;;;5091262;28;20577;-82
2022/10/24 04:51:38;;;;;;;7.38;2.58;;;;;;;;;;5074966;28;20043;-81
2022/10/24 04:54:04;;;;;;;9.60;2.40;;;;;;;;;;5093465;28;20048;-81
2022/10/24 04:56:30;;;;;;;9.13;2.50;;;;;;;;;;5078995;28;20032;-81
2022/10/24 04:58:56;;;;;;;6.32;2.50;;;;;;;;;;5113135;28;20044;-81
2022/10/24 05:01:22;;;;;;;6.35;2.42;;;;;;;;;;5105625;28;20044;-82
2022/10/24 05:03:48;;;;;;;7.35;2.50;;;;;;;;;;5091845;28;20059;-81
2022/10/24 05:06:14;;;;;;;10.93;2.88;;;;;;;;;;5073543;28;20044;-81
2022/10/24 05:08:40;;;;;;;9.43;2.60;;;;;;;;;;5111346;28;20035;-82
2022/10/24 05:11:08;;;;;;;8.48;2.33;;;;;;;;;;5093151;28;20074;-81
2022/10/24 05:13:34;;;;;;;9.50;2.92;;;;;;;;;;5093544;28;20118;-82
2022/10/24 05:16:01;;;;;;;8.13;2.20;;;;;;;;;;5081511;28;20031;-81
2022/10/24 05:18:27;;;;;;;5.97;2.40;;;;;;;;;;5092646;28;20051;-82
2022/10/24 05:20:55;;;;;;;6.45;2.38;;;;;;;;;;5099406;28;20044;-82
2022/10/24 05:23:21;;;;;;;6.07;2.20;;;;;;;;;;5058437;28;20050;-82
2022/10/24 05:25:47;;;;;;;7.75;2.40;;;;;;;;;;5093607;28;20044;-82
2022/10/24 05:28:13;;;;;;;7.03;2.53;;;;;;;;;;5073923;28;20052;-82
2022/10/24 05:30:39;;;;;;;6.47;2.53;;;;;;;;;;5092153;28;20036;-81
2022/10/24 05:33:05;;;;;;;9.00;2.30;;;;;;;;;;5075923;28;20071;-82
2022/10/24 05:35:31;;;;;;;10.68;2.83;;;;;;;;;;5095897;28;20040;-80
2022/10/24 05:37:57;;;;;;;5.95;2.03;;;;;;;;;;5083756;28;20071;-81
2022/10/24 05:40:23;;;;;;;8.10;2.40;;;;;;;;;;5116362;28;20404;-81
2022/10/24 05:42:51;;;;;;;9.30;2.22;;;;;;;;;;5088295;28;20066;-81
2022/10/24 05:45:17;;;;;;;8.35;2.55;;;;;;;;;;5076894;28;20396;-82
2022/10/24 05:47:43;;;;;;;11.80;2.42;;;;;;;;;;5080041;28;20550;-81
2022/10/24 05:50:09;;;;;;;4.60;2.15;;;;;;;;;;5089622;28;20044;-81
2022/10/24 05:52:35;;;;;;;6.80;2.10;;;;;;;;;;5095959;28;20200;-81
2022/10/24 05:55:05;;;;;;;7.05;2.20;;;;;;;;;;5077683;28;20052;-80
2022/10/24 05:57:31;;;;;;;9.25;2.30;;;;;;;;;;5078129;28;20118;-81
2022/10/24 05:59:57;;;;;;;11.80;2.33;;;;;;;;;;5077953;28;20048;-81
2022/10/24 06:02:23;;;;;;;7.65;2.45;;;;;;;;;;5095981;28;20134;-81
2022/10/24 06:04:50;;;;;;;6.78;2.15;;;;;;;;;;5095620;28;20483;-82
2022/10/24 06:07:19;;;;;;;6.85;2.13;;;;;;;;;;5098066;28;20040;-81
2022/10/24 06:09:45;;;;;;;12.05;2.38;;;;;;;;;;5095214;28;20038;-81
2022/10/24 06:12:11;;;;;;;7.80;2.10;;;;;;;;;;5095437;28;20053;-81
2022/10/24 06:14:38;;;;;;;10.93;2.17;;;;;;;;;;5061045;28;20467;-82
2022/10/24 06:17:10;;;;;;;8.80;2.28;;;;;;;;;;5094415;28;20044;-81
2022/10/24 06:19:37;;;;;;;8.52;2.10;;;;;;;;;;5093919;28;20048;-81
2022/10/24 06:22:04;;;;;;;8.55;2.33;;;;;;;;;;5094059;28;20523;-82
2022/10/24 06:24:30;;;;;;;9.35;2.03;;;;;;;;;;5093552;28;20082;-81
2022/10/24 06:26:56;;;;;;;11.07;2.03;;;;;;;;;;5095688;28;20105;-81
2022/10/24 06:29:22;;;;;;;7.32;2.33;;;;;;;;;;5094966;28;20439;-82
2022/10/24 06:31:48;;;;;;;4.60;1.80;;;;;;;;;;5077191;28;20044;-81
2022/10/24 06:34:14;;;;;;;6.60;1.80;;;;;;;;;;5077290;28;20043;-81
2022/10/24 06:36:40;;;;;;;7.25;2.05;;;;;;;;;;5095473;28;20044;-81
2022/10/24 06:39:06;;;;;;;6.80;1.90;;;;;;;;;;5094348;28;20052;-81
2022/10/24 06:41:32;;;;;;;10.15;2.13;;;;;;;;;;5059638;28;20562;-81
2022/10/24 06:43:58;;;;;;;7.22;1.98;;;;;;;;;;5093032;28;20124;-81
2022/10/24 06:46:24;;;;;;;8.77;2.30;;;;;;;;;;5092817;28;20043;-81
2022/10/24 06:48:54;;;;;;;7.50;2.25;;;;;;;;;;5083211;28;20047;-82
2022/10/24 06:51:20;;;;;;;8.02;2.20;;;;;;;;;;5080255;28;20194;-82
2022/10/24 06:53:46;;;;;;;10.25;2.22;;;;;;;;;;5096483;28;20043;-82
2022/10/24 06:56:13;;;;;;;8.35;2.13;;;;;;;;;;5080608;28;20050;-82
2022/10/24 06:58:39;;;;;;;6.22;1.90;;;;;;;;;;5115204;28;20399;-81
2022/10/24 07:01:09;;;;;;;7.45;2.10;;;;;;;;;;5116218;28;20422;-81
2022/10/24 07:03:35;;;;;;;10.18;2.10;;;;;;;;;;5096358;28;20043;-81
2022/10/24 07:06:05;;;;;;;6.50;2.20;;;;;;;;;;5079872;28;20512;-81
2022/10/24 07:08:31;;;;;;;3.75;1.50;;;;;;;;;;5094522;28;20047;-81
2022/10/24 07:10:57;;;;;;;6.38;1.88;;;;;;;;;;5085472;28;20568;-81
2022/10/24 07:13:23;;;;;;;5.40;2.00;;;;;;;;;;5083576;28;20055;-80
2022/10/24 07:15:53;;;;;;;12.55;2.60;;;;;;;;;;5112372;28;20508;-80
2022/10/24 07:18:19;;;;;;;7.63;1.88;;;;;;;;;;5096798;28;20052;-80
2022/10/24 07:20:46;;;;;;;4.32;1.58;;;;;;;;;;5094185;28;20485;-80
2022/10/24 07:23:12;;;;;;;6.18;1.90;;;;;;;;;;5094295;28;20119;-81
2022/10/24 07:25:38;;;;;;;9.00;2.25;;;;;;;;;;5076687;28;20401;-81
2022/10/24 07:28:05;;;;;;;8.80;2.15;;;;;;;;;;5093828;28;20048;-81
2022/10/24 07:30:31;;;;;;;4.57;1.73;;;;;;;;;;5076214;28;20036;-81
2022/10/24 07:32:57;;;;;;;6.53;1.90;;;;;;;;;;5081317;28;20119;-82
2022/10/24 07:35:23;;;;;;;7.55;2.10;;;;;;;;;;5060012;28;20151;-81
2022/10/24 07:37:49;;;;;;;6.75;2.10;;;;;;;;;;5072214;28;20409;-81
2022/10/24 07:40:15;;;;;;;9.40;2.30;;;;;;;;;;5072111;28;20045;-81
2022/10/24 07:42:42;;;;;;;6.93;2.10;;;;;;;;;;5073261;28;20051;-81
2022/10/24 07:45:09;;;;;;;5.95;2.30;;;;;;;;;;5073608;28;20055;-80
2022/10/24 07:47:35;;;;;;;6.43;2.10;;;;;;;;;;5073503;28;20041;-82
2022/10/24 07:50:01;;;;;;;5.97;1.60;;;;;;;;;;5076708;28;20501;-81
2022/10/24 07:52:27;;;;;;;6.28;1.60;;;;;;;;;;5082466;28;20044;-81
2022/10/24 07:54:54;;;;;;;6.53;1.65;;;;;;;;;;5075674;28;20108;-81
2022/10/24 07:57:21;;;;;;;7.03;1.60;;;;;;;;;;5093448;28;20109;-85
2022/10/24 07:59:47;;;;;;;5.65;1.65;;;;;;;;;;5087426;28;20095;-87
2022/10/24 08:02:14;;;;;;;10.77;1.80;;;;;;;;;;5074067;28;20045;-86
2022/10/24 08:04:41;;;;;;;9.00;2.00;;;;;;;;;;5057291;28;20059;-86
2022/10/24 08:07:11;;;;;;;6.10;1.90;;;;;;;;;;5065534;28;20044;-86
2022/10/24 08:09:42;;;;;;;7.85;1.80;;;;;;;;;;5073550;28;20383;-85
2022/10/24 08:12:08;;;;;;;6.90;2.13;;;;;;;;;;5076603;28;20094;-86
2022/10/24 08:14:34;;;;;;;7.43;1.75;;;;;;;;;;5074889;28;20138;-86
2022/10/24 08:17:00;;;;;;;8.15;2.00;;;;;;;;;;5073038;28;20049;-87
2022/10/24 08:19:26;;;;;;;7.10;2.28;;;;;;;;;;5073650;28;20345;-88
2022/10/24 08:21:52;;;;;;;6.20;2.03;;;;;;;;;;5079073;28;20043;-84
2022/10/24 08:24:18;;;;;;;9.40;2.10;;;;;;;;;;5075406;28;20055;-84
2022/10/24 08:26:44;;;;;;;9.30;2.13;;;;;;;;;;5093763;28;20511;-85
2022/10/24 08:29:13;;;;;;;7.22;1.90;;;;;;;;;;5075262;28;20471;-85
2022/10/24 08:31:39;;;;;;;7.55;1.88;;;;;;;;;;5092432;28;20054;-84
2022/10/24 08:34:05;;;;;;;7.35;1.67;;;;;;;;;;5075675;28;20083;-85
2022/10/24 08:36:33;;;;;;;8.27;1.80;;;;;;;;;;5092811;28;20048;-84
2022/10/24 08:38:59;;;;;;;8.98;2.10;;;;;;;;;;5111382;28;20051;-85
2022/10/24 08:41:36;;;;;;;10.38;1.80;;;;;;;;;;5096906;28;20079;-85
2022/10/24 08:44:04;;;;;;;6.97;1.80;;;;;;;;;;5096866;28;20039;-83
2022/10/24 08:46:47;;;;;;;6.55;1.83;;;;;;;;;;5096617;28;20107;-85
2022/10/24 08:49:13;;;;;;;3.83;1.30;;;;;;;;;;5115966;28;20095;-89
2022/10/24 08:51:47;;;;;;;8.85;1.77;;;;;;;;;;5117459;28;20079;-89
2022/10/24 08:54:17;;;;;;;6.70;2.00;;;;;;;;;;5097859;28;20100;-89
2022/10/24 08:56:43;;;;;;;8.82;1.75;;;;;;;;;;5085037;28;20135;-89
2022/10/24 08:59:10;;;;;;;7.40;1.70;;;;;;;;;;5077888;28;20389;-88
2022/10/24 09:01:47;;;;;;;7.00;1.80;;;;;;;;;;5095589;28;20036;-89
2022/10/24 09:04:14;;;;;;;8.23;2.15;;;;;;;;;;5077596;28;20092;-89
2022/10/24 09:06:41;;;;;;;6.20;1.60;;;;;;;;;;5096811;28;20368;-89
2022/10/24 09:09:07;;;;;;;7.18;1.77;;;;;;;;;;5095789;28;20530;-89
2022/10/24 09:11:40;;;;;;;6.95;1.90;;;;;;;;;;5100829;28;20044;-89
2022/10/24 09:14:17;;;;;;;6.03;1.70;;;;;;;;;;5083645;28;20075;-89
2022/10/24 09:16:44;;;;;;;12.10;1.80;;;;;;;;;;5081748;28;20142;-88
2022/10/24 09:19:12;;;;;;;8.98;2.00;;;;;;;;;;5064525;28;20047;-89
2022/10/24 09:21:40;;;;;;;7.63;1.90;;;;;;;;;;5063792;28;20111;-89
2022/10/24 09:24:09;;;;;;;6.88;1.85;;;;;;;;;;5086518;28;20100;-88
2022/10/24 09:26:37;;;;;;;7.32;1.85;;;;;;;;;;5084427;28;20513;-87
2022/10/24 09:29:03;;;;;;;7.78;1.88;;;;;;;;;;5073000;28;20107;-87
2022/10/24 09:31:29;;;;;;;6.60;1.70;;;;;;;;;;5100392;28;20122;-87
2022/10/24 09:33:55;;;;;;;9.00;1.83;;;;;;;;;;5082784;28;20040;-90
2022/10/24 09:36:23;;;;;;;7.82;2.05;;;;;;;;;;5065520;28;20040;-89
2022/10/24 09:38:50;;;;;;;9.55;1.90;;;;;;;;;;5081379;28;20060;-90
2022/10/24 09:41:18;;;;;;;7.78;1.92;;;;;;;;;;5081060;28;20047;-90
2022/10/24 09:43:45;;;;;;;7.70;1.83;;;;;;;;;;5082049;28;20055;-91
2022/10/24 09:46:16;;;;;;;10.45;2.35;;;;;;;;;;5102570;28;20044;-91
2022/10/24 09:48:51;;;;;;;5.50;1.73;;;;;;;;;;5101595;28;20047;-91
2022/10/24 09:51:23;;;;;;;4.40;1.55;;;;;;;;;;5085462;28;20048;-91
2022/10/24 09:54:08;;;;;;;8.82;1.98;;;;;;;;;;5085205;28;20126;-90
2022/10/24 09:56:39;;;;;;;11.80;2.03;;;;;;;;;;5084928;28;20134;-90
2022/10/24 09:59:19;;;;;;;7.85;1.83;;;;;;;;;;5086228;28;20104;-90
2022/10/24 10:01:45;;;;;;;7.13;2.03;;;;;;;;;;5086523;28;20035;-91
2022/10/24 10:04:16;;;;;;;11.52;2.10;;;;;;;;;;5084939;28;20044;-90
2022/10/24 10:06:47;;;;;;;8.45;2.00;;;;;;;;;;5102400;28;20092;-90
2022/10/24 10:09:23;;;;;;;5.57;1.67;;;;;;;;;;5084996;28;20046;-90
2022/10/24 10:11:55;;;;;;;6.72;1.40;;;;;;;;;;5073770;28;20507;-75
2022/10/24 10:14:23;;;;;;;7.07;1.60;;;;;;;;;;5072959;28;20413;-75
2022/10/24 10:17:00;;;;;;;5.85;1.50;;;;;;;;;;5091979;28;20044;-75
2022/10/24 10:19:27;;;;;;;8.60;1.98;;;;;;;;;;5091881;28;20052;-76
2022/10/24 10:21:54;;;;;;;6.00;1.73;;;;;;;;;;5091115;28;20036;-75
2022/10/24 10:24:25;;;;;;;7.88;2.00;;;;;;;;;;5091377;28;20376;-75
2022/10/24 10:26:51;;;;;;;8.98;2.15;;;;;;;;;;5091906;28;20062;-75
2022/10/24 10:29:18;;;;;;;9.27;2.10;;;;;;;;;;5082297;28;20044;-75
2022/10/24 10:32:10;;;;;;;7.50;1.70;;;;;;;;;;5091697;28;20052;-75
2022/10/24 10:34:40;;;;;;;8.70;1.80;;;;;;;;;;5068866;28;20564;-76
2022/10/24 10:37:25;;;;;;;9.88;1.92;;;;;;;;;;5091074;28;20040;-75
2022/10/24 10:40:00;;;;;;;9.68;2.08;;;;;;;;;;5091003;28;20043;-74
2022/10/24 10:42:34;;;;;;;9.70;1.98;;;;;;;;;;5100869;28;20126;-74
2022/10/24 10:45:10;;;;;;;8.35;2.00;;;;;;;;;;5111247;28;20098;-74
2022/10/24 10:47:48;;;;;;;9.32;1.77;;;;;;;;;;5093218;28;20504;-74
2022/10/24 10:50:21;;;;;;;7.78;1.92;;;;;;;;;;5076367;28;20411;-74
2022/10/24 10:52:50;;;;;;;9.13;2.28;;;;;;;;;;5106827;28;20050;-74
2022/10/24 10:55:19;;;;;;;8.38;2.03;;;;;;;;;;5110757;28;20462;-76
2022/10/24 10:57:56;;;;;;;10.25;1.80;;;;;;;;;;5091094;28;20151;-74
2022/10/24 11:00:22;;;;;;;8.30;2.10;;;;;;;;;;5091522;28;20511;-74
2022/10/24 11:03:03;;;;;;;8.00;2.05;;;;;;;;;;5091456;28;20059;-75
2022/10/24 11:05:39;;;;;;;8.05;1.65;;;;;;;;;;5111698;28;20142;-85
2022/10/24 11:08:17;;;;;;;8.68;1.85;;;;;;;;;;5099000;28;20112;-92
2022/10/24 11:10:49;;;;;;;6.63;2.00;;;;;;;;;;5074106;28;20044;-91
2022/10/24 11:13:20;;;;;;;9.88;1.98;;;;;;;;;;5123325;28;20044;-91
2022/10/24 11:15:48;;;;;;;6.30;1.63;;;;;;;;;;5084488;28;20116;-92
2022/10/24 11:18:21;;;;;;;5.25;1.42;;;;;;;;;;5084685;28;20487;-91
2022/10/24 11:20:47;;;;;;;6.68;1.65;;;;;;;;;;5100227;28;20445;-91
2022/10/24 11:23:13;;;;;;;8.07;1.95;;;;;;;;;;5101294;28;20043;-91
2022/10/24 11:25:46;;;;;;;8.05;1.80;;;;;;;;;;5101015;28;20042;-91
2022/10/24 11:28:20;;;;;;;10.15;2.03;;;;;;;;;;5100897;28;20047;-92
2022/10/24 11:30:50;;;;;;;8.43;1.70;;;;;;;;;;5098096;28;20057;-92
2022/10/24 11:33:19;;;;;;;6.78;1.92;;;;;;;;;;5099796;28;20220;-91
2022/10/24 11:36:06;;;;;;;10.60;1.95;;;;;;;;;;5118039;28;20039;-91
2022/10/24 11:38:34;;;;;;;6.97;1.60;;;;;;;;;;5119334;28;20048;-91
2022/10/24 11:41:15;;;;;;;9.35;2.03;;;;;;;;;;5102232;28;20047;-92
2022/10/24 11:43:43;;;;;;;5.88;1.55;;;;;;;;;;5101245;28;20036;-92
2022/10/24 11:46:41;;;;;;;9.93;1.90;;;;;;;;;;5087663;28;20071;-91
2022/10/24 11:49:10;;;;;;;9.40;2.33;;;;;;;;;;5020051;28;20052;-91
2022/10/24 11:51:36;;;;;;;6.50;1.63;;;;;;;;;;5080958;28;20069;-91
2022/10/24 11:54:04;;;;;;;10.57;1.92;;;;;;;;;;5100570;28;20490;-91
2022/10/24 11:56:34;;;;;;;9.48;2.05;;;;;;;;;;5099377;28;20121;-91
2022/10/24 11:59:01;;;;;;;8.90;1.67;;;;;;;;;;5073637;28;20044;-91
2022/10/24 12:01:46;;;;;;;8.98;1.90;;;;;;;;;;5122317;28;20044;-91
2022/10/24 12:04:15;;;;;;;7.68;1.50;;;;;;;;;;5081627;28;20039;-91
2022/10/24 12:06:44;;;;;;;8.93;1.80;;;;;;;;;;5100613;28;20096;-92
2022/10/24 12:09:19;;;;;;;6.50;1.50;;;;;;;;;;5099025;28;20067;-91
2022/10/24 12:11:56;;;;;;;8.70;1.73;;;;;;;;;;5101369;28;20039;-92
2022/10/24 12:14:40;;;;;;;9.27;1.75;;;;;;;;;;5119106;28;20035;-92
2022/10/24 12:17:19;;;;;;;5.97;1.75;;;;;;;;;;5099751;28;20052;-91
2022/10/24 12:19:45;;;;;;;5.65;1.40;;;;;;;;;;5098661;28;20400;-87
2022/10/24 12:22:16;;;;;;;8.88;1.95;;;;;;;;;;5109193;28;20107;-93
2022/10/24 12:24:42;;;;;;;6.00;1.80;;;;;;;;;;5097535;28;20044;-93
2022/10/24 12:27:21;;;;;;;8.35;2.00;;;;;;;;;;5110772;28;20093;-92
2022/10/24 12:29:59;;;;;;;7.68;1.83;;;;;;;;;;5109875;28;20040;-93
2022/10/24 12:32:39;;;;;;;7.30;1.75;;;;;;;;;;5096835;28;20051;-93
2022/10/24 12:35:25;;;;;;;7.07;1.60;;;;;;;;;;5079442;28;20044;-92
2022/10/24 12:37:51;;;;;;;7.78;1.45;;;;;;;;;;5062571;28;20052;-92
2022/10/24 12:40:36;;;;;;;8.15;1.63;;;;;;;;;;5098972;28;20052;-92
2022/10/24 12:43:07;;;;;;;6.78;1.92;;;;;;;;;;5098332;28;20036;-93
2022/10/24 12:45:33;;;;;;;7.45;1.77;;;;;;;;;;5098441;28;20048;-92
2022/10/24 12:47:59;;;;;;;7.28;1.67;;;;;;;;;;5098455;28;20119;-92
2022/10/24 12:50:27;;;;;;;6.82;1.63;;;;;;;;;;5081080;28;20050;-92
2022/10/24 12:52:53;;;;;;;7.07;1.60;;;;;;;;;;5078542;28;20356;-91
2022/10/24 12:55:38;;;;;;;5.75;1.63;;;;;;;;;;5067618;28;20145;-92
2022/10/24 12:58:24;;;;;;;5.40;1.45;;;;;;;;;;5099301;28;20154;-92
2022/10/24 13:00:54;;;;;;;6.03;1.70;;;;;;;;;;5118901;28;20044;-92
2022/10/24 13:03:22;;;;;;;6.60;1.65;;;;;;;;;;5108503;28;20040;-92
2022/10/24 13:05:57;;;;;;;8.27;1.55;;;;;;;;;;5088022;28;20051;-92
2022/10/24 13:08:39;;;;;;;6.75;1.73;;;;;;;;;;5101433;28;20144;-91
2022/10/24 13:11:19;;;;;;;6.80;1.85;;;;;;;;;;5100971;28;20198;-91
2022/10/24 13:13:54;;;;;;;9.32;1.77;;;;;;;;;;5100346;28;20078;-92
2022/10/24 13:16:31;;;;;;;8.05;1.50;;;;;;;;;;5092316;28;20513;-92
2022/10/24 13:19:06;;;;;;;5.05;1.70;;;;;;;;;;5066806;28;20051;-92
2022/10/24 13:24:18;;;;;;;7.63;1.80;;;;;;;;;;5081502;28;20340;-92
2022/10/24 13:27:07;;;;;;;6.70;1.80;;;;;;;;;;5063934;28;20040;-92
2022/10/24 13:29:34;;;;;;;10.38;1.90;;;;;;;;;;5062453;28;20048;-91
2022/10/24 13:32:03;;;;;;;10.32;1.90;;;;;;;;;;5079667;28;20036;-87
2022/10/24 13:34:39;;;;;;;6.68;1.77;;;;;;;;;;5075776;28;20073;-80
2022/10/24 13:37:07;;;;;;;6.22;1.80;;;;;;;;;;5089136;28;20051;-92
2022/10/24 13:39:35;;;;;;;8.15;1.85;;;;;;;;;;5062851;28;20096;-91
2022/10/24 13:42:04;;;;;;;7.70;1.85;;;;;;;;;;5062828;28;20051;-92
2022/10/24 13:44:43;;;;;;;6.35;1.40;;;;;;;;;;5062721;28;20144;-92
2022/10/24 13:47:12;;;;;;;10.77;1.50;;;;;;;;;;5075492;28;20036;-89
2022/10/24 13:49:51;;;;;;;6.60;1.60;;;;;;;;;;5101795;28;20043;-90
2022/10/24 13:52:21;;;;;;;4.18;1.40;;;;;;;;;;5081972;28;20040;-90
2022/10/24 13:54:50;;;;;;;6.40;1.60;;;;;;;;;;5075725;28;20047;-91
2022/10/24 13:57:24;;;;;;;5.30;1.40;;;;;;;;;;5107652;28;20120;-90
2022/10/24 13:59:53;;;;;;;8.90;1.70;;;;;;;;;;5109644;28;20142;-92
2022/10/24 14:02:21;;;;;;;8.40;1.50;;;;;;;;;;5087830;28;20404;-91
2022/10/24 14:04:48;;;;;;;6.63;2.10;;;;;;;;;;5072057;28;20124;-91
2022/10/24 14:07:19;;;;;;;7.72;1.50;;;;;;;;;;5087569;28;20116;-91
2022/10/24 14:09:49;;;;;;;7.85;1.65;;;;;;;;;;5077749;28;20036;-91
2022/10/24 14:12:20;;;;;;;5.82;1.50;;;;;;;;;;5078941;28;20044;-92
2022/10/24 14:14:48;;;;;;;8.70;1.63;;;;;;;;;;5074339;28;20048;-92
2022/10/24 14:17:17;;;;;;;12.07;1.73;;;;;;;;;;5088761;28;20071;-91
2022/10/24 14:19:51;;;;;;;4.60;1.40;;;;;;;;;;5088376;28;20082;-92
2022/10/24 14:22:22;;;;;;;4.80;1.73;;;;;;;;;;5071123;28;20063;-91
2022/10/24 14:24:48;;;;;;;4.72;1.30;;;;;;;;;;5087339;28;20040;-92
2022/10/24 14:27:15;;;;;;;5.35;1.42;;;;;;;;;;5081200;28;20046;-92
2022/10/24 14:29:50;;;;;;;6.95;1.60;;;;;;;;;;5087227;28;20051;-92
2022/10/24 14:32:17;;;;;;;8.20;1.98;;;;;;;;;;5090027;28;20263;-91
2022/10/24 14:34:43;;;;;;;7.10;1.50;;;;;;;;;;5097916;28;20124;-92
2022/10/24 14:37:14;;;;;;;5.63;1.50;;;;;;;;;;5088529;28;20051;-91
2022/10/24 14:39:41;;;;;;;6.78;1.50;;;;;;;;;;5096392;28;20044;-91
2022/10/24 14:42:12;;;;;;;5.47;1.67;;;;;;;;;;5083380;28;20055;-91
2022/10/24 14:44:38;;;;;;;6.07;1.60;;;;;;;;;;5096270;28;20059;-91
2022/10/24 14:47:21;;;;;;;9.15;1.60;;;;;;;;;;5091705;28;20059;-91
2022/10/24 14:49:48;;;;;;;4.95;1.35;;;;;;;;;;5117662;28;20044;-91
2022/10/24 14:52:14;;;;;;;8.45;1.83;;;;;;;;;;5082628;28;20060;-91
2022/10/24 14:54:50;;;;;;;4.72;1.40;;;;;;;;;;5097402;28;20048;-92